Time,TemperatureF,DewpointF,PressureIn,WindDirection,WindDirectionDegrees,WindSpeedMPH,WindSpeedGustMPH,Humidity,HourlyPrecipIn,Conditions,Clouds,dailyrainin,SoftwareType,DateUTC
2013-02-04 00:13:00,17.4,14.0,29.74,NW,307,1.0,5.0,85,0.00,,,0.00,weatherlink.com 1.10,2013-02-04 05:13:00,
2013-02-04 00:28:00,17.7,13.0,29.74,NW,307,1.0,4.0,83,0.00,,,0.00,weatherlink.com 1.10,2013-02-04 05:28:00,
2013-02-04 00:43:00,17.4,13.0,29.74,NW,317,1.0,4.0,82,0.00,,,0.00,weatherlink.com 1.10,2013-02-04 05:43:00,
2013-02-04 00:58:00,16.8,12.0,29.74,NW,312,1.0,3.0,82,0.00,,,0.00,weatherlink.com 1.10,2013-02-04 05:58:00,
2013-02-04 01:13:00,16.7,12.0,29.74,NW,306,1.0,5.0,82,0.00,,,0.00,weatherlink.com 1.10,2013-02-04 06:13:00,
2013-02-04 01:28:00,16.5,12.0,29.74,NW,323,1.0,4.0,81,0.00,,,0.00,weatherlink.com 1.10,2013-02-04 06:28:00,
2013-02-04 01:43:00,16.8,11.0,29.75,NW,310,2.0,5.0,79,0.00,,,0.00,weatherlink.com 1.10,2013-02-04 06:43:00,
2013-02-04 01:58:00,17.1,11.0,29.75,NW,304,2.0,5.0,78,0.00,,,0.00,weatherlink.com 1.10,2013-02-04 06:58:00,
2013-02-04 02:13:00,17.1,11.0,29.75,NW,304,1.0,3.0,78,0.00,,,0.00,weatherlink.com 1.10,2013-02-04 07:13:00,
2013-02-04 02:29:00,17.3,11.0,29.74,WNW,292,2.0,7.0,77,0.00,,,0.00,weatherlink.com 1.10,2013-02-04 07:29:00,
2013-02-04 02:43:00,17.1,11.0,29.74,WNW,292,1.0,6.0,77,0.00,,,0.00,weatherlink.com 1.10,2013-02-04 07:43:00,
2013-02-04 02:58:00,16.8,11.0,29.73,NNW,330,1.0,4.0,77,0.00,,,0.00,weatherlink.com 1.10,2013-02-04 07:58:00,
2013-02-04 03:13:00,16.7,11.0,29.73,NW,321,2.0,6.0,78,0.00,,,0.00,weatherlink.com 1.10,2013-02-04 08:13:00,
2013-02-04 03:28:00,17.1,12.0,29.73,WNW,282,1.0,9.0,79,0.00,,,0.00,weatherlink.com 1.10,2013-02-04 08:28:00,
2013-02-04 03:44:00,17.6,12.0,29.73,WNW,300,4.0,8.0,79,0.00,,,0.00,weatherlink.com 1.10,2013-02-04 08:44:00,
2013-02-04 03:59:00,17.4,12.0,29.73,NW,314,8.0,9.0,80,0.00,,,0.00,weatherlink.com 1.10,2013-02-04 08:59:00,
2013-02-04 04:14:00,17.0,12.0,29.74,NW,309,7.0,8.0,81,0.00,,,0.00,weatherlink.com 1.10,2013-02-04 09:14:00,
2013-02-04 04:29:00,16.8,12.0,29.74,NW,316,4.0,8.0,81,0.00,,,0.00,weatherlink.com 1.10,2013-02-04 09:29:00,
2013-02-04 04:44:00,16.5,12.0,29.75,WNW,303,1.0,4.0,82,0.00,,,0.00,weatherlink.com 1.10,2013-02-04 09:44:00,
2013-02-04 04:59:00,16.2,12.0,29.75,NW,323,0.0,6.0,83,0.00,,,0.00,weatherlink.com 1.10,2013-02-04 09:59:00,
2013-02-04 05:14:00,16.3,12.0,29.75,WNW,297,5.0,7.0,83,0.00,,,0.00,weatherlink.com 1.10,2013-02-04 10:14:00,
2013-02-04 05:29:00,16.8,12.0,29.75,WNW,283,3.0,9.0,82,0.00,,,0.00,weatherlink.com 1.10,2013-02-04 10:29:00,
2013-02-04 05:44:00,16.9,12.0,29.76,West,274,2.0,11.0,82,0.00,,,0.00,weatherlink.com 1.10,2013-02-04 10:44:00,
2013-02-04 05:59:00,16.8,13.0,29.77,NW,305,3.0,9.0,83,0.00,,,0.00,weatherlink.com 1.10,2013-02-04 10:59:00,
2013-02-04 06:14:00,16.6,12.0,29.77,NW,306,2.0,9.0,83,0.00,,,0.00,weatherlink.com 1.10,2013-02-04 11:14:00,
2013-02-04 06:29:00,16.3,12.0,29.77,WNW,296,3.0,8.0,84,0.00,,,0.00,weatherlink.com 1.10,2013-02-04 11:29:00,
2013-02-04 06:44:00,16.0,12.0,29.77,NNW,347,2.0,10.0,84,0.00,,,0.00,weatherlink.com 1.10,2013-02-04 11:44:00,
2013-02-04 06:59:00,15.9,12.0,29.78,North,351,0.0,9.0,84,0.00,,,0.00,weatherlink.com 1.10,2013-02-04 11:59:00,
2013-02-04 07:14:00,15.7,11.0,29.79,NW,321,2.0,4.0,83,0.00,,,0.00,weatherlink.com 1.10,2013-02-04 12:14:00,
2013-02-04 07:29:00,16.4,11.0,29.79,WNW,293,6.0,13.0,80,0.00,,,0.00,weatherlink.com 1.10,2013-02-04 12:29:00,
2013-02-04 07:44:00,17.1,11.0,29.79,NW,309,5.0,10.0,78,0.00,,,0.00,weatherlink.com 1.10,2013-02-04 12:44:00,
2013-02-04 07:59:00,17.7,12.0,29.79,NW,316,4.0,8.0,77,0.00,,,0.00,weatherlink.com 1.10,2013-02-04 12:59:00,
2013-02-04 08:14:00,18.2,12.0,29.80,WNW,301,4.0,14.0,76,0.00,,,0.00,weatherlink.com 1.10,2013-02-04 13:14:00,
2013-02-04 08:29:00,18.9,12.0,29.80,NW,326,8.0,9.0,74,0.00,,,0.00,weatherlink.com 1.10,2013-02-04 13:29:00,
2013-02-04 08:44:00,18.9,11.0,29.79,WNW,302,5.0,17.0,71,0.00,,,0.00,weatherlink.com 1.10,2013-02-04 13:44:00,
2013-02-04 08:59:00,18.9,10.0,29.80,NW,319,7.0,17.0,69,0.00,,,0.00,weatherlink.com 1.10,2013-02-04 13:59:00,
2013-02-04 09:14:00,19.4,10.0,29.80,West,278,6.0,15.0,67,0.00,,,0.00,weatherlink.com 1.10,2013-02-04 14:14:00,
2013-02-04 09:29:00,20.1,10.0,29.79,NW,319,9.0,23.0,64,0.00,,,0.00,weatherlink.com 1.10,2013-02-04 14:29:00,
2013-02-04 09:44:00,20.3,9.0,29.80,NW,306,4.0,15.0,62,0.00,,,0.00,weatherlink.com 1.10,2013-02-04 14:44:00,
2013-02-04 09:59:00,21.2,8.0,29.80,NW,307,11.0,20.0,58,0.00,,,0.00,weatherlink.com 1.10,2013-02-04 14:59:00,
2013-02-04 10:14:00,20.6,8.0,29.80,WNW,303,5.0,15.0,59,0.00,,,0.00,weatherlink.com 1.10,2013-02-04 15:14:00,
2013-02-04 10:30:00,21.4,8.0,29.80,NNW,330,17.0,26.0,56,0.00,,,0.00,weatherlink.com 1.10,2013-02-04 15:30:00,
2013-02-04 10:45:00,21.7,8.0,29.80,WNW,295,8.0,20.0,55,0.00,,,0.00,weatherlink.com 1.10,2013-02-04 15:45:00,
2013-02-04 11:00:00,22.6,7.0,29.80,NW,307,7.0,20.0,52,0.00,,,0.00,weatherlink.com 1.10,2013-02-04 16:00:00,
2013-02-04 11:15:00,21.9,9.0,29.80,WNW,296,17.0,20.0,57,0.00,,,0.00,weatherlink.com 1.10,2013-02-04 16:15:00,
2013-02-04 11:30:00,22.0,8.0,29.80,WNW,300,7.0,15.0,55,0.00,,,0.00,weatherlink.com 1.10,2013-02-04 16:30:00,
2013-02-04 11:45:00,21.2,8.0,29.80,NW,322,7.0,17.0,56,0.00,,,0.00,weatherlink.com 1.10,2013-02-04 16:45:00,
2013-02-04 12:00:00,21.9,9.0,29.79,WNW,283,10.0,18.0,57,0.00,,,0.00,weatherlink.com 1.10,2013-02-04 17:00:00,
2013-02-04 12:15:00,22.1,9.0,29.79,WNW,296,9.0,19.0,58,0.00,,,0.00,weatherlink.com 1.10,2013-02-04 17:15:00,
2013-02-04 12:30:00,21.5,9.0,29.79,WNW,299,5.0,19.0,60,0.00,,,0.00,weatherlink.com 1.10,2013-02-04 17:30:00,
2013-02-04 12:45:00,22.4,11.0,29.79,NW,319,9.0,18.0,63,0.00,,,0.00,weatherlink.com 1.10,2013-02-04 17:45:00,
2013-02-04 13:00:00,23.4,10.0,29.79,North,353,5.0,16.0,58,0.00,,,0.00,weatherlink.com 1.10,2013-02-04 18:00:00,
2013-02-04 13:15:00,23.4,9.0,29.78,WNW,288,7.0,15.0,54,0.00,,,0.00,weatherlink.com 1.10,2013-02-04 18:15:00,
2013-02-04 13:30:00,23.6,7.0,29.78,WNW,294,8.0,21.0,49,0.00,,,0.00,weatherlink.com 1.10,2013-02-04 18:30:00,
2013-02-04 13:45:00,23.0,6.0,29.78,NW,323,5.0,21.0,49,0.00,,,0.00,weatherlink.com 1.10,2013-02-04 18:45:00,
2013-02-04 14:00:00,23.4,9.0,29.79,WNW,294,4.0,20.0,54,0.00,,,0.00,weatherlink.com 1.10,2013-02-04 19:00:00,
2013-02-04 14:16:00,22.7,7.0,29.80,NW,307,7.0,14.0,51,0.00,,,0.00,weatherlink.com 1.10,2013-02-04 19:16:00,
2013-02-04 14:30:00,22.5,4.0,29.80,WNW,302,11.0,22.0,45,0.00,,,0.00,weatherlink.com 1.10,2013-02-04 19:30:00,
2013-02-04 14:45:00,22.2,4.0,29.80,NNW,330,8.0,25.0,45,0.00,,,0.00,weatherlink.com 1.10,2013-02-04 19:45:00,
2013-02-04 15:00:00,22.9,6.0,29.81,West,263,5.0,13.0,48,0.00,,,0.00,weatherlink.com 1.10,2013-02-04 20:00:00,
2013-02-04 15:15:00,23.6,7.0,29.81,SW,231,4.0,19.0,49,0.00,,,0.00,weatherlink.com 1.10,2013-02-04 20:15:00,
2013-02-04 15:30:00,22.3,7.0,29.81,West,270,10.0,22.0,51,0.00,,,0.00,weatherlink.com 1.10,2013-02-04 20:30:00,
2013-02-04 15:45:00,21.6,5.0,29.81,NW,307,6.0,21.0,49,0.00,,,0.00,weatherlink.com 1.10,2013-02-04 20:45:00,
2013-02-04 16:00:00,21.9,4.0,29.82,NW,316,11.0,28.0,46,0.00,,,0.00,weatherlink.com 1.10,2013-02-04 21:00:00,
2013-02-04 16:15:00,21.6,4.0,29.82,North,359,2.0,20.0,46,0.00,,,0.00,weatherlink.com 1.10,2013-02-04 21:15:00,
2013-02-04 16:30:00,21.2,4.0,29.82,NNW,345,6.0,22.0,47,0.00,,,0.00,weatherlink.com 1.10,2013-02-04 21:30:00,
2013-02-04 16:45:00,20.5,4.0,29.82,WNW,302,7.0,18.0,49,0.00,,,0.00,weatherlink.com 1.10,2013-02-04 21:45:00,
2013-02-04 17:00:00,20.1,4.0,29.83,NW,304,11.0,19.0,50,0.00,,,0.00,weatherlink.com 1.10,2013-02-04 22:00:00,
2013-02-04 17:15:00,19.6,4.0,29.83,NW,315,4.0,18.0,52,0.00,,,0.00,weatherlink.com 1.10,2013-02-04 22:15:00,
2013-02-04 17:30:00,19.4,4.0,29.84,WNW,285,7.0,20.0,52,0.00,,,0.00,weatherlink.com 1.10,2013-02-04 22:30:00,
2013-02-04 17:45:00,19.1,4.0,29.84,North,354,7.0,17.0,53,0.00,,,0.00,weatherlink.com 1.10,2013-02-04 22:45:00,
2013-02-04 18:00:00,18.8,5.0,29.84,WNW,293,4.0,16.0,55,0.00,,,0.00,weatherlink.com 1.10,2013-02-04 23:00:00,
2013-02-04 18:15:00,18.3,5.0,29.86,WNW,289,4.0,15.0,57,0.00,,,0.00,weatherlink.com 1.10,2013-02-04 23:15:00,
2013-02-04 18:30:00,18.2,5.0,29.86,West,277,4.0,14.0,57,0.00,,,0.00,weatherlink.com 1.10,2013-02-04 23:30:00,
2013-02-04 18:45:00,17.9,5.0,29.87,NW,304,4.0,10.0,58,0.00,,,0.00,weatherlink.com 1.10,2013-02-04 23:45:00,
2013-02-04 19:00:00,17.8,6.0,29.88,WNW,297,5.0,11.0,59,0.00,,,0.00,weatherlink.com 1.10,2013-02-05 00:00:00,
2013-02-04 19:15:00,17.4,6.0,29.88,WNW,290,6.0,9.0,60,0.00,,,0.00,weatherlink.com 1.10,2013-02-05 00:15:00,
2013-02-04 19:30:00,17.1,6.0,29.89,NW,311,5.0,10.0,61,0.00,,,0.00,weatherlink.com 1.10,2013-02-05 00:30:00,
2013-02-04 19:45:00,16.7,6.0,29.89,WNW,293,4.0,11.0,62,0.00,,,0.00,weatherlink.com 1.10,2013-02-05 00:45:00,
2013-02-04 20:01:00,16.6,6.0,29.89,WNW,294,5.0,13.0,63,0.00,,,0.00,weatherlink.com 1.10,2013-02-05 01:01:00,
2013-02-04 20:16:00,16.3,6.0,29.89,WNW,297,5.0,10.0,63,0.00,,,0.00,weatherlink.com 1.10,2013-02-05 01:16:00,
2013-02-04 20:31:00,16.5,6.0,29.89,NW,315,6.0,11.0,63,0.00,,,0.00,weatherlink.com 1.10,2013-02-05 01:31:00,
2013-02-04 20:46:00,16.3,6.0,29.90,WNW,297,6.0,13.0,63,0.00,,,0.00,weatherlink.com 1.10,2013-02-05 01:46:00,
2013-02-04 21:01:00,16.0,6.0,29.90,NW,311,4.0,11.0,65,0.00,,,0.00,weatherlink.com 1.10,2013-02-05 02:01:00,
2013-02-04 21:16:00,15.7,6.0,29.91,NW,314,6.0,9.0,65,0.00,,,0.00,weatherlink.com 1.10,2013-02-05 02:16:00,
2013-02-04 21:31:00,16.0,6.0,29.91,WNW,299,5.0,10.0,64,0.00,,,0.00,weatherlink.com 1.10,2013-02-05 02:31:00,
2013-02-04 21:46:00,15.5,6.0,29.91,NW,316,4.0,8.0,65,0.00,,,0.00,weatherlink.com 1.10,2013-02-05 02:46:00,
2013-02-04 22:01:00,15.1,6.0,29.91,WNW,295,1.0,7.0,66,0.00,,,0.00,weatherlink.com 1.10,2013-02-05 03:01:00,
2013-02-04 22:16:00,15.0,6.0,29.91,WNW,285,4.0,8.0,67,0.00,,,0.00,weatherlink.com 1.10,2013-02-05 03:16:00,
2013-02-04 22:31:00,14.6,5.0,29.91,West,281,3.0,6.0,67,0.00,,,0.00,weatherlink.com 1.10,2013-02-05 03:31:00,
2013-02-04 22:46:00,14.5,6.0,29.92,WNW,302,2.0,8.0,68,0.00,,,0.00,weatherlink.com 1.10,2013-02-05 03:46:00,
2013-02-04 23:01:00,14.2,5.0,29.92,WNW,298,1.0,6.0,68,0.00,,,0.00,weatherlink.com 1.10,2013-02-05 04:01:00,
2013-02-04 23:16:00,14.0,6.0,29.93,West,276,2.0,6.0,69,0.00,,,0.00,weatherlink.com 1.10,2013-02-05 04:16:00,
2013-02-04 23:31:00,13.9,5.0,29.93,NW,305,3.0,8.0,69,0.00,,,0.00,weatherlink.com 1.10,2013-02-05 04:31:00,
2013-02-04 23:46:00,13.9,5.0,29.93,WNW,302,2.0,8.0,69,0.00,,,0.00,weatherlink.com 1.10,2013-02-05 04:46:00,